sensor_id;sensor_type;location;lat;lon;timestamp;pressure;altitude;pressure_sealevel;temperature;humidity
14383;BME280;7275;50.328;8.720;2023-06-26T00:02:26;99586.03;;;26.46;38.77
14383;BME280;7275;50.328;8.720;2023-06-26T00:04:53;99589.38;;;26.40;39.29
14383;BME280;7275;50.328;8.720;2023-06-26T00:07:21;99581.72;;;26.35;39.47
14383;BME280;7275;50.328;8.720;2023-06-26T00:09:48;99586.47;;;26.33;39.38
14383;BME280;7275;50.328;8.720;2023-06-26T00:12:17;99582.38;;;26.29;39.42
14383;BME280;7275;50.328;8.720;2023-06-26T00:14:45;99575.56;;;26.25;39.42
14383;BME280;7275;50.328;8.720;2023-06-26T00:17:12;99579.63;;;26.21;39.66
14383;BME280;7275;50.328;8.720;2023-06-26T00:19:40;99576.22;;;26.19;39.58
14383;BME280;7275;50.328;8.720;2023-06-26T00:22:07;99575.53;;;26.17;39.81
14383;BME280;7275;50.328;8.720;2023-06-26T00:24:35;99579.09;;;26.18;39.80
14383;BME280;7275;50.328;8.720;2023-06-26T00:27:02;99581.25;;;26.14;39.82
14383;BME280;7275;50.328;8.720;2023-06-26T00:29:31;99583.25;;;26.12;40.00
14383;BME280;7275;50.328;8.720;2023-06-26T00:31:59;99576.47;;;26.08;40.03
14383;BME280;7275;50.328;8.720;2023-06-26T00:34:26;99587.75;;;26.03;40.18
14383;BME280;7275;50.328;8.720;2023-06-26T00:36:54;99581.78;;;26.00;40.11
14383;BME280;7275;50.328;8.720;2023-06-26T00:39:21;99589.91;;;26.00;40.24
14383;BME280;7275;50.328;8.720;2023-06-26T00:41:51;99581.97;;;25.98;40.21
14383;BME280;7275;50.328;8.720;2023-06-26T00:44:21;99581.44;;;25.95;40.29
14383;BME280;7275;50.328;8.720;2023-06-26T00:46:50;99576.16;;;25.93;40.61
14383;BME280;7275;50.328;8.720;2023-06-26T00:49:18;99590.03;;;25.90;40.50
14383;BME280;7275;50.328;8.720;2023-06-26T00:51:46;99580.50;;;25.86;40.58
14383;BME280;7275;50.328;8.720;2023-06-26T00:54:14;99580.13;;;25.81;40.47
14383;BME280;7275;50.328;8.720;2023-06-26T00:56:46;99574.34;;;25.76;40.71
14383;BME280;7275;50.328;8.720;2023-06-26T00:59:14;99563.97;;;25.72;41.10
14383;BME280;7275;50.328;8.720;2023-06-26T01:01:42;99566.28;;;25.67;41.01
14383;BME280;7275;50.328;8.720;2023-06-26T01:04:11;99569.31;;;25.64;41.06
14383;BME280;7275;50.328;8.720;2023-06-26T01:06:45;99562.47;;;25.60;41.30
14383;BME280;7275;50.328;8.720;2023-06-26T01:09:16;99560.97;;;25.57;41.10
14383;BME280;7275;50.328;8.720;2023-06-26T01:11:45;99558.56;;;25.54;41.16
14383;BME280;7275;50.328;8.720;2023-06-26T01:14:12;99553.47;;;25.51;41.35
14383;BME280;7275;50.328;8.720;2023-06-26T01:16:41;99557.00;;;25.52;41.26
14383;BME280;7275;50.328;8.720;2023-06-26T01:19:19;99561.72;;;25.50;41.22
14383;BME280;7275;50.328;8.720;2023-06-26T01:21:56;99552.03;;;25.47;41.40
14383;BME280;7275;50.328;8.720;2023-06-26T01:24:32;99553.34;;;25.43;41.49
14383;BME280;7275;50.328;8.720;2023-06-26T01:27:02;99552.66;;;25.41;41.55
14383;BME280;7275;50.328;8.720;2023-06-26T01:29:31;99555.50;;;25.39;41.59
14383;BME280;7275;50.328;8.720;2023-06-26T01:32:00;99554.81;;;25.37;41.74
14383;BME280;7275;50.328;8.720;2023-06-26T01:34:29;99551.56;;;25.34;41.82
14383;BME280;7275;50.328;8.720;2023-06-26T01:36:56;99556.28;;;25.32;41.75
14383;BME280;7275;50.328;8.720;2023-06-26T01:39:24;99555.59;;;25.30;41.92
14383;BME280;7275;50.328;8.720;2023-06-26T01:41:51;99554.88;;;25.28;41.96
14383;BME280;7275;50.328;8.720;2023-06-26T01:44:26;99547.06;;;25.25;41.71
14383;BME280;7275;50.328;8.720;2023-06-26T01:47:00;99554.66;;;25.21;42.00
14383;BME280;7275;50.328;8.720;2023-06-26T01:49:34;99547.84;;;25.17;41.77
14383;BME280;7275;50.328;8.720;2023-06-26T01:52:09;99546.28;;;25.15;41.92
14383;BME280;7275;50.328;8.720;2023-06-26T01:54:47;99538.47;;;25.12;42.02
14383;BME280;7275;50.328;8.720;2023-06-26T01:57:17;99537.94;;;25.08;42.03
14383;BME280;7275;50.328;8.720;2023-06-26T01:59:47;99537.94;;;25.08;41.99
14383;BME280;7275;50.328;8.720;2023-06-26T02:02:14;99536.25;;;25.07;42.34
14383;BME280;7275;50.328;8.720;2023-06-26T02:04:42;99535.38;;;25.07;42.10
14383;BME280;7275;50.328;8.720;2023-06-26T02:07:09;99532.97;;;25.04;42.10
14383;BME280;7275;50.328;8.720;2023-06-26T02:09:37;99536.00;;;25.01;42.20
14383;BME280;7275;50.328;8.720;2023-06-26T02:12:05;99533.59;;;24.98;42.46
14383;BME280;7275;50.328;8.720;2023-06-26T02:14:33;99534.72;;;24.95;42.50
14383;BME280;7275;50.328;8.720;2023-06-26T02:17:02;99536.03;;;24.91;42.26
14383;BME280;7275;50.328;8.720;2023-06-26T02:19:30;99541.91;;;24.87;42.23
14383;BME280;7275;50.328;8.720;2023-06-26T02:21:57;99536.97;;;24.82;42.40
14383;BME280;7275;50.328;8.720;2023-06-26T02:24:25;99530.16;;;24.78;42.44
14383;BME280;7275;50.328;8.720;2023-06-26T02:26:56;99536.03;;;24.74;42.60
14383;BME280;7275;50.328;8.720;2023-06-26T02:29:24;99535.56;;;24.69;42.56
14383;BME280;7275;50.328;8.720;2023-06-26T02:31:51;99538.59;;;24.66;42.70
14383;BME280;7275;50.328;8.720;2023-06-26T02:34:20;99532.63;;;24.62;42.69
14383;BME280;7275;50.328;8.720;2023-06-26T02:36:48;99535.47;;;24.60;42.74
14383;BME280;7275;50.328;8.720;2023-06-26T02:39:15;99540.34;;;24.57;42.77
14383;BME280;7275;50.328;8.720;2023-06-26T02:41:43;99534.06;;;24.56;42.91
14383;BME280;7275;50.328;8.720;2023-06-26T02:44:11;99536.06;;;24.54;42.94
14383;BME280;7275;50.328;8.720;2023-06-26T02:46:38;99540.63;;;24.54;42.78
14383;BME280;7275;50.328;8.720;2023-06-26T02:49:06;99542.78;;;24.50;42.90
14383;BME280;7275;50.328;8.720;2023-06-26T02:51:35;99534.84;;;24.49;42.93
14383;BME280;7275;50.328;8.720;2023-06-26T02:54:03;99526.00;;;24.47;42.76
14383;BME280;7275;50.328;8.720;2023-06-26T02:56:31;99529.00;;;24.44;43.01
14383;BME280;7275;50.328;8.720;2023-06-26T02:58:59;99528.47;;;24.40;43.03
14383;BME280;7275;50.328;8.720;2023-06-26T03:01:26;99532.31;;;24.38;43.14
14383;BME280;7275;50.328;8.720;2023-06-26T03:03:54;99537.88;;;24.36;43.25
14383;BME280;7275;50.328;8.720;2023-06-26T03:06:22;99534.59;;;24.33;43.17
14383;BME280;7275;50.328;8.720;2023-06-26T03:08:50;99539.28;;;24.31;43.29
14383;BME280;7275;50.328;8.720;2023-06-26T03:11:18;99531.50;;;24.28;43.32
14383;BME280;7275;50.328;8.720;2023-06-26T03:13:46;99525.41;;;24.26;43.12
14383;BME280;7275;50.328;8.720;2023-06-26T03:16:13;99528.22;;;24.24;43.38
14383;BME280;7275;50.328;8.720;2023-06-26T03:18:41;99522.13;;;24.22;43.48
14383;BME280;7275;50.328;8.720;2023-06-26T03:21:08;99524.28;;;24.19;43.32
14383;BME280;7275;50.328;8.720;2023-06-26T03:23:38;99529.84;;;24.17;43.72
14383;BME280;7275;50.328;8.720;2023-06-26T03:26:07;99518.44;;;24.14;43.56
14383;BME280;7275;50.328;8.720;2023-06-26T03:28:35;99527.72;;;24.11;43.81
14383;BME280;7275;50.328;8.720;2023-06-26T03:31:02;99521.47;;;24.11;44.01
14383;BME280;7275;50.328;8.720;2023-06-26T03:33:30;99520.75;;;24.09;43.93
14383;BME280;7275;50.328;8.720;2023-06-26T03:35:57;99518.22;;;24.07;43.81
14383;BME280;7275;50.328;8.720;2023-06-26T03:38:25;99520.06;;;24.07;43.83
14383;BME280;7275;50.328;8.720;2023-06-26T03:40:53;99517.19;;;24.08;43.86
14383;BME280;7275;50.328;8.720;2023-06-26T03:43:22;99518.22;;;24.07;43.87
14383;BME280;7275;50.328;8.720;2023-06-26T03:45:49;99512.50;;;24.10;43.80
14383;BME280;7275;50.328;8.720;2023-06-26T03:48:17;99512.50;;;24.10;43.76
14383;BME280;7275;50.328;8.720;2023-06-26T03:50:45;99514.22;;;24.11;44.08
14383;BME280;7275;50.328;8.720;2023-06-26T03:53:12;99525.72;;;24.13;44.23
14383;BME280;7275;50.328;8.720;2023-06-26T03:55:40;99516.59;;;24.14;44.15
14383;BME280;7275;50.328;8.720;2023-06-26T03:58:07;99517.47;;;24.15;44.04
14383;BME280;7275;50.328;8.720;2023-06-26T04:00:36;99521.03;;;24.15;44.19
14383;BME280;7275;50.328;8.720;2023-06-26T04:03:04;99514.91;;;24.13;44.35
14383;BME280;7275;50.328;8.720;2023-06-26T04:05:32;99506.66;;;24.15;44.58
14383;BME280;7275;50.328;8.720;2023-06-26T04:07:59;99513.31;;;24.20;44.51
14383;BME280;7275;50.328;8.720;2023-06-26T04:10:27;99510.31;;;24.23;44.43
14383;BME280;7275;50.328;8.720;2023-06-26T04:12:54;99518.00;;;24.28;44.79
14383;BME280;7275;50.328;8.720;2023-06-26T04:15:22;99513.69;;;24.35;45.04
14383;BME280;7275;50.328;8.720;2023-06-26T04:17:50;99512.69;;;24.36;44.80
14383;BME280;7275;50.328;8.720;2023-06-26T04:20:18;99509.94;;;24.45;44.58
14383;BME280;7275;50.328;8.720;2023-06-26T04:22:47;99513.91;;;24.51;44.62
14383;BME280;7275;50.328;8.720;2023-06-26T04:25:14;99513.44;;;24.55;44.72
14383;BME280;7275;50.328;8.720;2023-06-26T04:27:42;99523.66;;;24.61;44.81
14383;BME280;7275;50.328;8.720;2023-06-26T04:30:10;99514.56;;;24.63;44.86
14383;BME280;7275;50.328;8.720;2023-06-26T04:32:38;99517.19;;;24.72;45.03
14383;BME280;7275;50.328;8.720;2023-06-26T04:35:08;99522.06;;;24.78;45.01
14383;BME280;7275;50.328;8.720;2023-06-26T04:37:36;99528.38;;;24.87;45.04
14383;BME280;7275;50.328;8.720;2023-06-26T04:40:06;99523.09;;;24.95;45.04
14383;BME280;7275;50.328;8.720;2023-06-26T04:42:35;99515.06;;;25.03;45.34
14383;BME280;7275;50.328;8.720;2023-06-26T04:45:04;99518.69;;;25.11;45.06
14383;BME280;7275;50.328;8.720;2023-06-26T04:47:32;99519.75;;;25.18;44.81
14383;BME280;7275;50.328;8.720;2023-06-26T04:49:59;99523.03;;;25.22;45.13
14383;BME280;7275;50.328;8.720;2023-06-26T04:52:28;99524.25;;;25.27;44.86
14383;BME280;7275;50.328;8.720;2023-06-26T04:54:56;99516.50;;;25.32;44.79
14383;BME280;7275;50.328;8.720;2023-06-26T04:57:23;99525.03;;;25.37;44.84
14383;BME280;7275;50.328;8.720;2023-06-26T04:59:51;99522.75;;;25.43;44.71
14383;BME280;7275;50.328;8.720;2023-06-26T05:02:18;99520.59;;;25.46;44.78
14383;BME280;7275;50.328;8.720;2023-06-26T05:04:46;99521.81;;;25.52;44.82
14383;BME280;7275;50.328;8.720;2023-06-26T05:07:14;99515.75;;;25.58;44.89
14383;BME280;7275;50.328;8.720;2023-06-26T05:09:43;99514.13;;;25.65;45.15
14383;BME280;7275;50.328;8.720;2023-06-26T05:12:11;99522.66;;;25.70;45.20
14383;BME280;7275;50.328;8.720;2023-06-26T05:14:39;99518.22;;;25.69;45.58
14383;BME280;7275;50.328;8.720;2023-06-26T05:17:06;99521.78;;;25.69;45.29
14383;BME280;7275;50.328;8.720;2023-06-26T05:19:34;99517.38;;;25.68;45.42
14383;BME280;7275;50.328;8.720;2023-06-26T05:22:02;99524.81;;;25.66;45.63
14383;BME280;7275;50.328;8.720;2023-06-26T05:24:33;99528.38;;;25.67;45.78
14383;BME280;7275;50.328;8.720;2023-06-26T05:27:04;99521.97;;;25.68;45.84
14383;BME280;7275;50.328;8.720;2023-06-26T05:29:33;99523.00;;;25.75;45.52
14383;BME280;7275;50.328;8.720;2023-06-26T05:32:05;99523.69;;;25.77;45.85
14383;BME280;7275;50.328;8.720;2023-06-26T05:34:32;99525.94;;;25.81;45.69
14383;BME280;7275;50.328;8.720;2023-06-26T05:37:01;99522.78;;;25.86;45.49
14383;BME280;7275;50.328;8.720;2023-06-26T05:39:29;99518.03;;;25.88;45.42
14383;BME280;7275;50.328;8.720;2023-06-26T05:41:57;99516.72;;;25.92;45.82
14383;BME280;7275;50.328;8.720;2023-06-26T05:44:27;99513.19;;;25.99;45.52
14383;BME280;7275;50.328;8.720;2023-06-26T05:46:54;99517.84;;;26.07;45.54
14383;BME280;7275;50.328;8.720;2023-06-26T05:49:22;99507.25;;;26.13;45.34
14383;BME280;7275;50.328;8.720;2023-06-26T05:51:50;99505.56;;;26.21;45.86
14383;BME280;7275;50.328;8.720;2023-06-26T05:54:18;99505.47;;;26.30;45.70
14383;BME280;7275;50.328;8.720;2023-06-26T05:56:47;99512.09;;;26.36;45.86
14383;BME280;7275;50.328;8.720;2023-06-26T05:59:15;99507.06;;;26.41;45.79
14383;BME280;7275;50.328;8.720;2023-06-26T06:01:45;99507.56;;;26.44;45.80
14383;BME280;7275;50.328;8.720;2023-06-26T06:04:13;99508.47;;;26.53;45.89
14383;BME280;7275;50.328;8.720;2023-06-26T06:06:40;99502.56;;;26.57;45.66
14383;BME280;7275;50.328;8.720;2023-06-26T06:09:08;99503.56;;;26.56;45.24
14383;BME280;7275;50.328;8.720;2023-06-26T06:11:35;99502.00;;;26.54;45.24
14383;BME280;7275;50.328;8.720;2023-06-26T06:14:03;99507.13;;;26.57;45.42
14383;BME280;7275;50.328;8.720;2023-06-26T06:16:31;99499.19;;;26.63;45.52
14383;BME280;7275;50.328;8.720;2023-06-26T06:19:00;99499.06;;;26.73;45.71
14383;BME280;7275;50.328;8.720;2023-06-26T06:21:29;99500.97;;;26.80;45.65
14383;BME280;7275;50.328;8.720;2023-06-26T06:23:57;99503.03;;;26.86;45.40
14383;BME280;7275;50.328;8.720;2023-06-26T06:26:24;99508.66;;;26.93;45.23
14383;BME280;7275;50.328;8.720;2023-06-26T06:28:52;99504.06;;;27.02;45.30
14383;BME280;7275;50.328;8.720;2023-06-26T06:31:19;99505.97;;;27.09;45.18
14383;BME280;7275;50.328;8.720;2023-06-26T06:33:47;99504.13;;;27.18;45.01
14383;BME280;7275;50.328;8.720;2023-06-26T06:36:16;99504.13;;;27.26;45.08
14383;BME280;7275;50.328;8.720;2023-06-26T06:38:43;99503.28;;;27.33;45.02
14383;BME280;7275;50.328;8.720;2023-06-26T06:41:11;99501.41;;;27.34;45.11
14383;BME280;7275;50.328;8.720;2023-06-26T06:43:39;99500.78;;;27.40;45.31
14383;BME280;7275;50.328;8.720;2023-06-26T06:46:06;99493.31;;;27.42;45.15
14383;BME280;7275;50.328;8.720;2023-06-26T06:48:34;99497.72;;;27.51;45.48
14383;BME280;7275;50.328;8.720;2023-06-26T06:51:02;99491.44;;;27.58;45.14
14383;BME280;7275;50.328;8.720;2023-06-26T06:53:31;99497.91;;;27.65;45.44
14383;BME280;7275;50.328;8.720;2023-06-26T06:55:59;99510.28;;;27.76;44.97
14383;BME280;7275;50.328;8.720;2023-06-26T06:58:26;99506.19;;;27.88;45.05
14383;BME280;7275;50.328;8.720;2023-06-26T07:00:54;99506.72;;;28.08;45.25
14383;BME280;7275;50.328;8.720;2023-06-26T07:03:22;99502.25;;;28.23;44.38
14383;BME280;7275;50.328;8.720;2023-06-26T07:05:49;99504.94;;;28.39;44.51
14383;BME280;7275;50.328;8.720;2023-06-26T07:08:17;99496.56;;;28.48;44.11
14383;BME280;7275;50.328;8.720;2023-06-26T07:10:46;99497.22;;;28.59;43.66
14383;BME280;7275;50.328;8.720;2023-06-26T07:13:14;99494.59;;;28.73;43.76
14383;BME280;7275;50.328;8.720;2023-06-26T07:15:41;99496.56;;;28.87;43.00
14383;BME280;7275;50.328;8.720;2023-06-26T07:18:09;99495.97;;;29.00;42.28
14383;BME280;7275;50.328;8.720;2023-06-26T07:20:36;99492.66;;;29.12;42.39
14383;BME280;7275;50.328;8.720;2023-06-26T07:23:04;99499.78;;;29.21;41.97
14383;BME280;7275;50.328;8.720;2023-06-26T07:25:32;99494.75;;;29.33;41.68
14383;BME280;7275;50.328;8.720;2023-06-26T07:28:01;99486.84;;;29.46;41.79
14383;BME280;7275;50.328;8.720;2023-06-26T07:30:29;99486.03;;;29.60;41.28
14383;BME280;7275;50.328;8.720;2023-06-26T07:32:56;99486.81;;;29.69;40.11
14383;BME280;7275;50.328;8.720;2023-06-26T07:35:24;99499.84;;;29.81;39.21
14383;BME280;7275;50.328;8.720;2023-06-26T07:37:53;99485.41;;;29.95;38.68
14383;BME280;7275;50.328;8.720;2023-06-26T07:40:21;99493.63;;;30.10;39.10
14383;BME280;7275;50.328;8.720;2023-06-26T07:42:49;99491.47;;;30.20;38.08
14383;BME280;7275;50.328;8.720;2023-06-26T07:45:18;99483.53;;;30.25;37.70
14383;BME280;7275;50.328;8.720;2023-06-26T07:47:46;99483.00;;;30.44;38.24
14383;BME280;7275;50.328;8.720;2023-06-26T07:50:14;99484.88;;;30.58;38.06
14383;BME280;7275;50.328;8.720;2023-06-26T07:52:45;99484.69;;;30.74;37.19
14383;BME280;7275;50.328;8.720;2023-06-26T07:55:13;99486.44;;;30.82;36.11
14383;BME280;7275;50.328;8.720;2023-06-26T07:57:41;99482.31;;;30.86;36.09
14383;BME280;7275;50.328;8.720;2023-06-26T08:00:09;99482.63;;;30.91;35.77
14383;BME280;7275;50.328;8.720;2023-06-26T08:02:38;99484.38;;;30.99;36.17
14383;BME280;7275;50.328;8.720;2023-06-26T08:05:06;99480.09;;;31.11;35.92
14383;BME280;7275;50.328;8.720;2023-06-26T08:07:34;99484.91;;;31.30;36.31
14383;BME280;7275;50.328;8.720;2023-06-26T08:10:02;99492.06;;;31.45;35.61
14383;BME280;7275;50.328;8.720;2023-06-26T08:12:30;99490.72;;;31.63;35.68
14383;BME280;7275;50.328;8.720;2023-06-26T08:14:57;99492.94;;;31.74;35.12
14383;BME280;7275;50.328;8.720;2023-06-26T08:17:25;99501.19;;;31.80;35.07
14383;BME280;7275;50.328;8.720;2023-06-26T08:19:57;99490.53;;;31.85;35.15
14383;BME280;7275;50.328;8.720;2023-06-26T08:22:24;99493.91;;;31.87;34.47
14383;BME280;7275;50.328;8.720;2023-06-26T08:24:52;99502.00;;;31.95;34.70
14383;BME280;7275;50.328;8.720;2023-06-26T08:27:19;99504.78;;;32.02;34.91
14383;BME280;7275;50.328;8.720;2023-06-26T08:29:47;99509.47;;;32.08;34.95
14383;BME280;7275;50.328;8.720;2023-06-26T08:32:14;99499.81;;;32.12;35.33
14383;BME280;7275;50.328;8.720;2023-06-26T08:34:42;99499.00;;;32.18;34.13
14383;BME280;7275;50.328;8.720;2023-06-26T08:37:11;99487.47;;;32.22;33.98
14383;BME280;7275;50.328;8.720;2023-06-26T08:39:38;99494.44;;;32.31;33.46
14383;BME280;7275;50.328;8.720;2023-06-26T08:42:06;99505.00;;;32.35;32.27
14383;BME280;7275;50.328;8.720;2023-06-26T08:44:34;99522.50;;;32.40;32.54
14383;BME280;7275;50.328;8.720;2023-06-26T08:47:11;99523.25;;;32.55;32.21
14383;BME280;7275;50.328;8.720;2023-06-26T08:49:46;99514.53;;;32.73;32.03
14383;BME280;7275;50.328;8.720;2023-06-26T08:52:23;99520.94;;;32.93;32.23
14383;BME280;7275;50.328;8.720;2023-06-26T08:54:55;99520.41;;;33.17;32.32
14383;BME280;7275;50.328;8.720;2023-06-26T08:57:26;99512.47;;;33.42;32.03
14383;BME280;7275;50.328;8.720;2023-06-26T08:59:55;99503.47;;;33.74;32.00
14383;BME280;7275;50.328;8.720;2023-06-26T09:02:22;99508.56;;;34.03;32.00
14383;BME280;7275;50.328;8.720;2023-06-26T09:04:50;99510.22;;;34.30;30.96
14383;BME280;7275;50.328;8.720;2023-06-26T09:07:18;99518.44;;;34.50;31.14
14383;BME280;7275;50.328;8.720;2023-06-26T09:09:47;99521.38;;;34.62;30.76
14383;BME280;7275;50.328;8.720;2023-06-26T09:12:14;99526.44;;;34.65;30.45
14383;BME280;7275;50.328;8.720;2023-06-26T09:14:42;99531.72;;;34.59;29.80
14383;BME280;7275;50.328;8.720;2023-06-26T09:17:10;99519.94;;;34.52;30.39
14383;BME280;7275;50.328;8.720;2023-06-26T09:19:37;99522.66;;;34.46;30.66
14383;BME280;7275;50.328;8.720;2023-06-26T09:22:11;99531.31;;;34.36;30.37
14383;BME280;7275;50.328;8.720;2023-06-26T09:24:40;99524.38;;;34.27;30.66
14383;BME280;7275;50.328;8.720;2023-06-26T09:27:10;99527.75;;;34.23;31.20
14383;BME280;7275;50.328;8.720;2023-06-26T09:29:38;99530.91;;;34.20;31.00
14383;BME280;7275;50.328;8.720;2023-06-26T09:32:07;99536.63;;;34.18;31.27
14383;BME280;7275;50.328;8.720;2023-06-26T09:34:36;99535.16;;;34.22;31.53
14383;BME280;7275;50.328;8.720;2023-06-26T09:37:04;99524.97;;;34.42;31.87
14383;BME280;7275;50.328;8.720;2023-06-26T09:39:32;99535.09;;;34.68;32.02
14383;BME280;7275;50.328;8.720;2023-06-26T09:42:00;99529.28;;;34.96;31.23
14383;BME280;7275;50.328;8.720;2023-06-26T09:44:34;99533.88;;;35.15;31.67
14383;BME280;7275;50.328;8.720;2023-06-26T09:47:02;99536.78;;;35.26;31.44
14383;BME280;7275;50.328;8.720;2023-06-26T09:49:30;99537.59;;;35.33;30.31
14383;BME280;7275;50.328;8.720;2023-06-26T09:52:00;99531.38;;;35.45;30.67
14383;BME280;7275;50.328;8.720;2023-06-26T09:54:28;99531.72;;;35.61;30.04
14383;BME280;7275;50.328;8.720;2023-06-26T09:57:06;99530.25;;;35.65;30.11
14383;BME280;7275;50.328;8.720;2023-06-26T09:59:36;99529.78;;;35.68;29.50
14383;BME280;7275;50.328;8.720;2023-06-26T10:02:04;99546.06;;;35.70;29.19
14383;BME280;7275;50.328;8.720;2023-06-26T10:04:32;99545.91;;;35.65;29.34
14383;BME280;7275;50.328;8.720;2023-06-26T10:07:03;99549.56;;;35.52;28.37
14383;BME280;7275;50.328;8.720;2023-06-26T10:09:32;99548.34;;;35.42;27.52
14383;BME280;7275;50.328;8.720;2023-06-26T10:12:02;99562.38;;;35.27;27.18
14383;BME280;7275;50.328;8.720;2023-06-26T10:14:34;99544.91;;;35.08;26.91
14383;BME280;7275;50.328;8.720;2023-06-26T10:17:08;99550.19;;;34.97;27.12
14383;BME280;7275;50.328;8.720;2023-06-26T10:19:38;99555.53;;;34.85;27.06
14383;BME280;7275;50.328;8.720;2023-06-26T10:22:07;99555.75;;;34.84;27.83
14383;BME280;7275;50.328;8.720;2023-06-26T10:24:35;99548.78;;;34.88;27.65
14383;BME280;7275;50.328;8.720;2023-06-26T10:27:09;99548.94;;;34.93;27.84
14383;BME280;7275;50.328;8.720;2023-06-26T10:29:38;99537.97;;;34.99;28.01
14383;BME280;7275;50.328;8.720;2023-06-26T10:32:10;99550.84;;;35.05;27.30
14383;BME280;7275;50.328;8.720;2023-06-26T10:34:39;99548.09;;;35.05;27.46
14383;BME280;7275;50.328;8.720;2023-06-26T10:37:06;99553.13;;;35.15;27.71
14383;BME280;7275;50.328;8.720;2023-06-26T10:39:47;99543.53;;;35.30;27.86
14383;BME280;7275;50.328;8.720;2023-06-26T10:42:17;99552.28;;;35.59;28.56
14383;BME280;7275;50.328;8.720;2023-06-26T10:44:46;99545.72;;;35.84;27.98
14383;BME280;7275;50.328;8.720;2023-06-26T10:47:30;99552.66;;;36.00;27.30
14383;BME280;7275;50.328;8.720;2023-06-26T10:50:17;99546.63;;;36.09;27.67
14383;BME280;7275;50.328;8.720;2023-06-26T10:53:11;99548.09;;;36.12;26.90
14383;BME280;7275;50.328;8.720;2023-06-26T10:55:42;99554.81;;;36.16;27.28
14383;BME280;7275;50.328;8.720;2023-06-26T10:58:31;99550.56;;;36.20;27.84
14383;BME280;7275;50.328;8.720;2023-06-26T11:01:18;99554.25;;;36.32;27.36
14383;BME280;7275;50.328;8.720;2023-06-26T11:03:59;99561.81;;;36.43;27.00
14383;BME280;7275;50.328;8.720;2023-06-26T11:06:29;99563.81;;;36.54;26.46
14383;BME280;7275;50.328;8.720;2023-06-26T11:09:00;99558.88;;;36.63;26.41
14383;BME280;7275;50.328;8.720;2023-06-26T11:11:58;99552.56;;;36.74;26.95
14383;BME280;7275;50.328;8.720;2023-06-26T11:14:30;99562.44;;;36.88;26.67
14383;BME280;7275;50.328;8.720;2023-06-26T11:16:58;99564.19;;;37.01;26.43
14383;BME280;7275;50.328;8.720;2023-06-26T11:19:28;99565.09;;;37.13;26.13
14383;BME280;7275;50.328;8.720;2023-06-26T11:22:01;99570.13;;;37.16;25.48
14383;BME280;7275;50.328;8.720;2023-06-26T11:24:29;99561.09;;;37.27;25.85
14383;BME280;7275;50.328;8.720;2023-06-26T11:27:01;99572.13;;;37.27;24.91
14383;BME280;7275;50.328;8.720;2023-06-26T11:29:31;99566.84;;;37.25;24.67
14383;BME280;7275;50.328;8.720;2023-06-26T11:32:01;99576.78;;;37.26;25.12
14383;BME280;7275;50.328;8.720;2023-06-26T11:34:33;99576.28;;;37.36;25.63
14383;BME280;7275;50.328;8.720;2023-06-26T11:37:01;99576.81;;;37.44;25.12
14383;BME280;7275;50.328;8.720;2023-06-26T11:39:30;99574.94;;;37.56;24.71
14383;BME280;7275;50.328;8.720;2023-06-26T11:41:59;99584.56;;;37.66;24.53
14383;BME280;7275;50.328;8.720;2023-06-26T11:44:29;99586.84;;;37.69;24.46
14383;BME280;7275;50.328;8.720;2023-06-26T11:46:57;99591.50;;;37.68;24.07
14383;BME280;7275;50.328;8.720;2023-06-26T11:49:25;99597.53;;;37.65;24.45
14383;BME280;7275;50.328;8.720;2023-06-26T11:51:54;99607.56;;;37.59;24.27
14383;BME280;7275;50.328;8.720;2023-06-26T11:54:26;99606.22;;;37.50;24.31
14383;BME280;7275;50.328;8.720;2023-06-26T11:56:55;99614.72;;;37.49;24.69
14383;BME280;7275;50.328;8.720;2023-06-26T11:59:24;99610.66;;;37.51;24.58
14383;BME280;7275;50.328;8.720;2023-06-26T12:01:52;99607.09;;;37.62;24.79
14383;BME280;7275;50.328;8.720;2023-06-26T12:04:21;99605.91;;;37.70;24.39
14383;BME280;7275;50.328;8.720;2023-06-26T12:06:51;99614.75;;;37.79;24.41
14383;BME280;7275;50.328;8.720;2023-06-26T12:09:25;99609.03;;;37.80;24.85
14383;BME280;7275;50.328;8.720;2023-06-26T12:11:55;99614.31;;;37.82;24.42
14383;BME280;7275;50.328;8.720;2023-06-26T12:14:25;99617.41;;;37.85;24.62
14383;BME280;7275;50.328;8.720;2023-06-26T12:16:54;99625.38;;;37.93;24.36
14383;BME280;7275;50.328;8.720;2023-06-26T12:19:25;99618.69;;;38.01;24.68
14383;BME280;7275;50.328;8.720;2023-06-26T12:21:53;99618.81;;;38.06;24.30
14383;BME280;7275;50.328;8.720;2023-06-26T12:24:24;99612.72;;;38.15;24.65
14383;BME280;7275;50.328;8.720;2023-06-26T12:26:54;99615.69;;;38.14;24.35
14383;BME280;7275;50.328;8.720;2023-06-26T12:29:30;99609.06;;;38.03;24.15
14383;BME280;7275;50.328;8.720;2023-06-26T12:31:59;99620.59;;;38.00;24.23
14383;BME280;7275;50.328;8.720;2023-06-26T12:34:28;99614.81;;;37.90;24.56
14383;BME280;7275;50.328;8.720;2023-06-26T12:37:00;99618.63;;;37.89;24.30
14383;BME280;7275;50.328;8.720;2023-06-26T12:39:30;99613.47;;;37.93;24.75
14383;BME280;7275;50.328;8.720;2023-06-26T12:42:13;99620.00;;;37.98;24.58
14383;BME280;7275;50.328;8.720;2023-06-26T12:44:41;99605.84;;;38.06;24.61
14383;BME280;7275;50.328;8.720;2023-06-26T12:47:09;99616.38;;;37.98;24.37
14383;BME280;7275;50.328;8.720;2023-06-26T12:49:40;99617.78;;;37.89;24.36
14383;BME280;7275;50.328;8.720;2023-06-26T12:52:09;99619.28;;;37.73;24.58
14383;BME280;7275;50.328;8.720;2023-06-26T12:54:40;99621.00;;;37.56;24.60
14383;BME280;7275;50.328;8.720;2023-06-26T12:57:09;99617.63;;;37.54;24.46
14383;BME280;7275;50.328;8.720;2023-06-26T12:59:37;99605.53;;;37.55;24.93
14383;BME280;7275;50.328;8.720;2023-06-26T13:02:06;99610.44;;;37.53;24.46
14383;BME280;7275;50.328;8.720;2023-06-26T13:04:34;99609.31;;;37.42;24.50
14383;BME280;7275;50.328;8.720;2023-06-26T13:07:02;99604.59;;;37.25;24.41
14383;BME280;7275;50.328;8.720;2023-06-26T13:09:32;99613.34;;;37.04;24.48
14383;BME280;7275;50.328;8.720;2023-06-26T13:12:03;99611.25;;;36.81;25.04
14383;BME280;7275;50.328;8.720;2023-06-26T13:14:32;99607.38;;;36.64;24.89
14383;BME280;7275;50.328;8.720;2023-06-26T13:17:01;99617.22;;;36.53;24.83
14383;BME280;7275;50.328;8.720;2023-06-26T13:19:33;99608.03;;;36.41;24.83
14383;BME280;7275;50.328;8.720;2023-06-26T13:22:00;99602.22;;;36.25;24.78